createdAt,value
2022-11-24T00:02:13.370Z,22.88
2022-11-24T00:04:33.512Z,17.73
2022-11-24T00:06:53.302Z,18.63
2022-11-24T00:09:12.860Z,20.30
2022-11-24T00:11:34.834Z,22.65
2022-11-24T00:13:54.933Z,20.20
2022-11-24T00:16:17.538Z,18.85
2022-11-24T00:21:00.615Z,16.53
2022-11-24T00:23:20.822Z,16.17
2022-11-24T00:25:41.858Z,17.40
2022-11-24T00:28:01.458Z,16.67
2022-11-24T00:30:23.213Z,18.02
2022-11-24T00:32:42.849Z,19.02
2022-11-24T00:35:05.860Z,17.10
2022-11-24T00:37:25.481Z,17.70
2022-11-24T00:39:45.400Z,18.15
2022-11-24T00:42:05.008Z,15.82
2022-11-24T00:44:24.948Z,20.73
2022-11-24T00:46:45.047Z,16.35
2022-11-24T00:49:05.246Z,16.40
2022-11-24T00:51:29.104Z,30.17
2022-11-24T00:53:49.072Z,21.90
2022-11-24T00:56:10.833Z,17.65
2022-11-24T00:58:32.145Z,17.05
2022-11-24T01:00:54.230Z,18.38
2022-11-24T01:03:14.663Z,17.77
2022-11-24T01:05:36.953Z,16.83
2022-11-24T01:07:57.054Z,16.88
2022-11-24T01:10:16.835Z,17.95
2022-11-24T01:12:36.630Z,19.35
2022-11-24T01:14:58.669Z,19.33
2022-11-24T01:17:18.563Z,22.95
2022-11-24T01:19:38.342Z,19.67
2022-11-24T01:21:58.053Z,19.67
2022-11-24T01:24:18.002Z,17.77
2022-11-24T01:26:40.634Z,18.52
2022-11-24T01:29:00.345Z,17.65
2022-11-24T01:31:21.584Z,17.65
2022-11-24T01:33:41.865Z,15.65
2022-11-24T01:36:04.092Z,15.27
2022-11-24T01:38:25.263Z,15.95
2022-11-24T01:40:45.494Z,14.27
2022-11-24T01:43:19.617Z,12.98
2022-11-24T01:45:40.527Z,13.48
2022-11-24T01:48:04.825Z,15.18
2022-11-24T01:50:25.197Z,16.02
2022-11-24T01:52:51.976Z,16.48
2022-11-24T01:55:19.220Z,19.40
2022-11-24T01:57:47.849Z,25.05
2022-11-24T02:00:12.842Z,18.27
2022-11-24T02:02:33.118Z,15.93
2022-11-24T02:04:54.699Z,16.88
2022-11-24T02:07:15.119Z,15.48
2022-11-24T02:09:55.015Z,15.93
2022-11-24T02:12:14.821Z,14.57
2022-11-24T02:14:36.942Z,14.35
2022-11-24T02:16:56.488Z,13.20
2022-11-24T02:19:34.473Z,14.40
2022-11-24T02:21:54.472Z,12.10
2022-11-24T02:24:24.505Z,9.57
2022-11-24T02:26:47.642Z,9.65
2022-11-24T02:29:08.282Z,11.30
2022-11-24T02:31:29.469Z,9.68
2022-11-24T02:33:50.525Z,11.52
2022-11-24T02:36:10.831Z,16.13
2022-11-24T02:38:35.039Z,14.55
2022-11-24T02:40:55.092Z,16.25
2022-11-24T02:43:21.817Z,15.50
2022-11-24T02:45:41.561Z,17.02
2022-11-24T02:48:01.613Z,15.15
2022-11-24T02:50:21.285Z,16.83
2022-11-24T02:52:40.893Z,17.90
2022-11-24T02:55:04.880Z,14.95
2022-11-24T02:57:24.356Z,17.15
2022-11-24T02:59:44.129Z,16.92
2022-11-24T03:02:04.493Z,18.92
2022-11-24T03:04:24.753Z,15.68
2022-11-24T03:06:44.800Z,15.20
2022-11-24T03:09:05.299Z,14.23
2022-11-24T03:11:24.978Z,14.60
2022-11-24T03:13:44.452Z,13.55
2022-11-24T03:16:07.975Z,12.18
2022-11-24T03:18:27.971Z,12.85
2022-11-24T03:20:49.283Z,12.88
2022-11-24T03:23:08.772Z,11.90
2022-11-24T03:25:28.469Z,11.77
2022-11-24T03:27:48.137Z,13.95
2022-11-24T03:30:08.534Z,13.57
2022-11-24T03:32:28.335Z,13.02
2022-11-24T03:34:49.651Z,13.30
2022-11-24T03:37:09.828Z,15.15
2022-11-24T03:39:29.538Z,16.70
2022-11-24T03:41:50.726Z,17.83
2022-11-24T03:44:10.746Z,16.63
2022-11-24T03:46:31.492Z,15.98
2022-11-24T03:48:51.685Z,17.17
2022-11-24T03:51:12.468Z,16.83
2022-11-24T03:53:32.990Z,16.13
2022-11-24T03:55:53.984Z,16.30
2022-11-24T03:58:14.071Z,17.23
2022-11-24T04:00:33.860Z,17.25
2022-11-24T04:02:53.834Z,17.27
2022-11-24T04:05:14.586Z,16.00
2022-11-24T04:07:34.786Z,15.57
2022-11-24T04:09:55.787Z,16.45
2022-11-24T04:12:34.016Z,16.33
2022-11-24T04:14:53.672Z,14.55
2022-11-24T04:17:13.375Z,14.73
2022-11-24T04:19:33.153Z,16.67
2022-11-24T04:21:52.790Z,16.58
2022-11-24T04:24:12.648Z,16.13
2022-11-24T04:26:32.347Z,15.10
2022-11-24T04:28:52.071Z,14.82
2022-11-24T04:31:11.789Z,14.95
2022-11-24T04:33:31.669Z,15.10
2022-11-24T04:35:53.424Z,14.63
2022-11-24T04:38:13.045Z,14.68
2022-11-24T04:40:53.983Z,14.48
2022-11-24T04:43:13.630Z,14.15
2022-11-24T04:45:34.101Z,16.88
2022-11-24T04:47:53.790Z,14.73
2022-11-24T04:50:15.953Z,15.77
2022-11-24T04:52:35.615Z,15.07
2022-11-24T04:54:56.262Z,15.55
2022-11-24T04:57:18.321Z,13.73
2022-11-24T04:59:38.447Z,13.32
2022-11-24T05:01:58.217Z,15.52
2022-11-24T05:04:19.663Z,14.27
2022-11-24T05:06:40.031Z,13.68
2022-11-24T05:08:59.567Z,14.27
2022-11-24T05:11:19.432Z,13.75
2022-11-24T05:13:39.602Z,12.00
2022-11-24T05:16:00.950Z,14.25
2022-11-24T05:18:21.589Z,12.95
2022-11-24T05:20:44.192Z,13.02
2022-11-24T05:23:06.619Z,15.73
2022-11-24T05:25:26.812Z,12.13
2022-11-24T05:27:46.755Z,12.63
2022-11-24T05:30:07.415Z,10.80
2022-11-24T05:32:27.282Z,15.23
2022-11-24T05:34:47.634Z,12.52
2022-11-24T05:37:07.618Z,12.05
2022-11-24T05:39:27.727Z,11.15
2022-11-24T05:41:47.810Z,11.43
2022-11-24T05:44:07.862Z,10.98
2022-11-24T05:46:29.209Z,11.15
2022-11-24T05:48:49.426Z,12.70
2022-11-24T05:51:09.998Z,11.45
2022-11-24T05:53:29.554Z,10.85
2022-11-24T05:55:50.838Z,11.45
2022-11-24T05:58:10.565Z,12.57
2022-11-24T06:00:32.253Z,11.10
2022-11-24T06:02:52.470Z,11.50
2022-11-24T06:05:12.626Z,11.75
2022-11-24T06:07:32.230Z,9.27
2022-11-24T06:09:52.431Z,10.45
2022-11-24T06:12:12.705Z,10.55
2022-11-24T06:14:32.645Z,10.63
2022-11-24T06:16:52.607Z,10.45
2022-11-24T06:19:12.698Z,9.40
2022-11-24T06:21:32.479Z,11.43
2022-11-24T06:23:51.918Z,11.68
2022-11-24T06:26:11.600Z,10.90
2022-11-24T06:28:31.473Z,18.67
2022-11-24T06:30:51.791Z,16.00
2022-11-24T06:33:11.524Z,17.58
2022-11-24T06:35:31.646Z,10.43
2022-11-24T06:37:51.406Z,11.52
2022-11-24T06:40:11.236Z,9.15
2022-11-24T06:42:31.211Z,7.65
2022-11-24T06:44:51.056Z,8.20
2022-11-24T06:47:10.994Z,16.77
2022-11-24T06:49:30.905Z,56.75
2022-11-24T06:51:50.643Z,31.45
2022-11-24T06:54:15.106Z,12.38
2022-11-24T06:56:35.144Z,10.07
2022-11-24T06:58:55.593Z,11.75
2022-11-24T07:01:26.412Z,11.40
2022-11-24T07:03:47.526Z,9.70
2022-11-24T07:06:07.680Z,12.52
2022-11-24T07:08:27.908Z,12.93
2022-11-24T07:10:47.727Z,13.77
2022-11-24T07:13:07.595Z,20.65
2022-11-24T07:15:28.568Z,24.27
2022-11-24T07:17:48.128Z,21.92
2022-11-24T07:20:08.912Z,14.40
2022-11-24T07:22:28.443Z,13.40
2022-11-24T07:24:48.017Z,12.43
2022-11-24T07:27:07.650Z,14.18
2022-11-24T07:29:27.396Z,17.40
2022-11-24T07:31:47.103Z,11.45
2022-11-24T07:34:07.183Z,10.63
2022-11-24T07:36:26.947Z,11.32
2022-11-24T07:38:46.770Z,11.88
2022-11-24T07:41:09.453Z,12.98
2022-11-24T07:43:31.263Z,12.60
2022-11-24T07:45:52.001Z,10.10
2022-11-24T07:48:11.908Z,13.18
2022-11-24T07:50:31.776Z,15.70
2022-11-24T07:52:51.415Z,12.82
2022-11-24T07:55:11.394Z,13.35
2022-11-24T07:57:31.412Z,13.82
2022-11-24T07:59:51.202Z,12.60
2022-11-24T08:02:12.622Z,15.52
2022-11-24T08:04:33.010Z,12.18
2022-11-24T08:06:52.689Z,15.68
2022-11-24T08:09:12.340Z,13.43
2022-11-24T08:11:32.400Z,15.85
2022-11-24T08:13:52.471Z,13.93
2022-11-24T08:16:15.595Z,19.17
2022-11-24T08:18:36.892Z,38.38
2022-11-24T08:20:58.179Z,19.45
2022-11-24T08:23:17.703Z,18.67
2022-11-24T08:25:37.409Z,12.07
2022-11-24T08:27:58.304Z,10.40
2022-11-24T08:30:19.352Z,10.38
2022-11-24T08:32:39.088Z,12.23
2022-11-24T08:35:13.051Z,8.40
2022-11-24T08:37:33.559Z,8.35
2022-11-24T08:39:53.381Z,10.25
2022-11-24T08:42:12.950Z,8.98
2022-11-24T08:44:33.035Z,9.68
2022-11-24T08:46:54.067Z,9.90
2022-11-24T08:49:14.457Z,9.90
2022-11-24T08:51:34.619Z,11.02
2022-11-24T08:53:56.078Z,13.32
2022-11-24T08:56:15.809Z,7.68
2022-11-24T08:58:36.549Z,7.32
2022-11-24T09:01:13.826Z,6.95
2022-11-24T09:03:34.407Z,6.68
2022-11-24T09:05:54.545Z,9.45
2022-11-24T09:08:14.198Z,4.60
2022-11-24T09:10:34.729Z,6.20
2022-11-24T09:12:54.871Z,5.97
2022-11-24T09:15:15.836Z,6.70
2022-11-24T09:17:36.225Z,5.07
2022-11-24T09:19:56.164Z,5.22
2022-11-24T09:22:15.758Z,4.25
2022-11-24T09:24:35.309Z,3.35
2022-11-24T09:26:56.121Z,3.95
2022-11-24T09:29:16.503Z,3.88
2022-11-24T09:31:36.965Z,4.25
2022-11-24T09:33:57.566Z,3.63
2022-11-24T09:36:17.718Z,3.42
2022-11-24T09:38:37.852Z,4.03
2022-11-24T09:41:17.748Z,4.47
2022-11-24T09:43:58.630Z,2.70
2022-11-24T09:46:52.863Z,3.03
2022-11-24T09:49:18.395Z,2.70
2022-11-24T09:51:39.953Z,3.03
2022-11-24T09:54:11.692Z,2.88
2022-11-24T09:56:36.125Z,2.05
2022-11-24T09:59:04.541Z,2.60
2022-11-24T10:01:35.052Z,2.47
2022-11-24T10:03:55.348Z,2.67
2022-11-24T10:06:40.394Z,1.73
2022-11-24T10:09:13.155Z,1.92
2022-11-24T10:12:01.890Z,2.83
2022-11-24T10:14:59.442Z,2.22
2022-11-24T10:17:28.625Z,2.20
2022-11-24T10:19:57.437Z,3.03
2022-11-24T10:22:38.580Z,1.95
2022-11-24T10:25:07.566Z,2.22
2022-11-24T10:27:51.406Z,3.90
2022-11-24T10:32:42.164Z,2.50
2022-11-24T10:35:24.061Z,2.58
2022-11-24T10:37:53.103Z,1.70
2022-11-24T10:41:00.680Z,2.33
2022-11-24T10:43:20.745Z,2.13
2022-11-24T10:45:41.484Z,1.35
2022-11-24T10:48:01.291Z,1.90
2022-11-24T10:50:27.313Z,1.67
2022-11-24T10:53:09.242Z,2.10
2022-11-24T10:55:54.466Z,1.60
2022-11-24T10:58:16.332Z,1.30
2022-11-24T11:00:36.327Z,1.65
2022-11-24T11:03:20.348Z,1.60
2022-11-24T11:05:42.660Z,4.10
2022-11-24T11:08:16.819Z,1.48
2022-11-24T11:10:36.688Z,2.55
2022-11-24T11:12:56.459Z,1.30
2022-11-24T11:15:31.143Z,1.60
2022-11-24T11:17:59.586Z,1.35
2022-11-24T11:20:29.313Z,1.40
2022-11-24T11:22:50.077Z,1.30
2022-11-24T11:25:09.802Z,1.45
2022-11-24T11:27:29.495Z,1.20
2022-11-24T11:35:12.796Z,1.35
2022-11-24T11:37:33.385Z,5.30
2022-11-24T11:39:54.717Z,1.30
2022-11-24T11:43:00.634Z,1.35
2022-11-24T11:45:20.715Z,2.88
2022-11-24T11:47:48.428Z,2.42
2022-11-24T11:51:21.887Z,2.00
2022-11-24T11:53:45.815Z,1.83
2022-11-24T11:56:25.212Z,1.10
2022-11-24T11:59:05.854Z,1.60
2022-11-24T12:01:31.280Z,2.25
2022-11-24T12:04:15.319Z,1.30
2022-11-24T12:07:12.190Z,1.33
2022-11-24T12:09:51.006Z,1.20
2022-11-24T12:12:37.480Z,3.45
2022-11-24T12:15:01.712Z,1.50
2022-11-24T12:18:02.247Z,1.50
2022-11-24T12:21:12.837Z,1.83
2022-11-24T12:23:47.476Z,1.40
2022-11-24T12:26:23.510Z,1.38
2022-11-24T12:28:53.412Z,1.90
2022-11-24T12:31:40.090Z,1.10
2022-11-24T12:34:15.219Z,1.73
2022-11-24T12:37:07.174Z,1.77
2022-11-24T12:39:35.344Z,1.00
2022-11-24T12:42:17.283Z,1.30
2022-11-24T12:45:08.244Z,1.10
2022-11-24T12:48:02.998Z,1.00
2022-11-24T12:50:27.249Z,1.20
2022-11-24T12:52:59.944Z,1.20
2022-11-24T12:55:22.427Z,1.25
2022-11-24T12:57:58.017Z,1.10
2022-11-24T13:00:27.216Z,1.15
2022-11-24T13:03:05.226Z,1.50
2022-11-24T13:05:49.984Z,1.00
2022-11-24T13:08:10.234Z,1.10
2022-11-24T13:13:17.117Z,1.10
2022-11-24T13:19:07.127Z,1.27
2022-11-24T13:22:05.399Z,1.83
2022-11-24T13:24:29.971Z,1.15
2022-11-24T13:27:15.210Z,1.27
2022-11-24T13:29:36.829Z,1.10
2022-11-24T13:32:02.499Z,1.13
2022-11-24T13:34:46.313Z,1.35
2022-11-24T13:37:38.836Z,1.38
2022-11-24T13:40:01.751Z,1.17
2022-11-24T13:42:43.345Z,3.42
2022-11-24T13:45:25.117Z,1.57
2022-11-24T13:47:46.129Z,1.70
2022-11-24T13:50:45.128Z,1.95
2022-11-24T13:53:39.989Z,2.15
2022-11-24T13:56:12.113Z,1.60
2022-11-24T13:58:45.491Z,1.38
2022-11-24T14:01:19.357Z,1.30
2022-11-24T14:04:22.016Z,1.15
2022-11-24T14:06:44.688Z,2.97
2022-11-24T14:09:30.240Z,2.28
2022-11-24T14:12:06.059Z,2.63
2022-11-24T14:14:25.825Z,3.55
2022-11-24T14:16:45.649Z,3.53
2022-11-24T14:19:10.450Z,2.10
2022-11-24T14:21:40.640Z,2.78
2022-11-24T14:24:23.375Z,2.47
2022-11-24T14:26:45.718Z,2.22
2022-11-24T14:29:06.839Z,1.75
2022-11-24T14:31:27.277Z,1.40
2022-11-24T14:33:46.958Z,2.20
2022-11-24T14:36:14.830Z,3.25
2022-11-24T14:38:34.490Z,3.13
2022-11-24T14:40:55.244Z,4.05
2022-11-24T14:43:26.693Z,4.35
2022-11-24T14:46:01.221Z,5.22
2022-11-24T14:48:37.973Z,4.05
2022-11-24T14:51:32.223Z,2.05
2022-11-24T14:53:55.784Z,3.80
2022-11-24T14:56:23.402Z,1.80
2022-11-24T14:58:43.518Z,2.90
2022-11-24T15:01:29.589Z,5.88
2022-11-24T15:04:22.049Z,11.82
2022-11-24T15:07:19.647Z,5.82
2022-11-24T15:09:48.556Z,7.88
2022-11-24T15:12:30.136Z,10.27
2022-11-24T15:14:52.323Z,17.00
2022-11-24T15:17:21.985Z,43.90
2022-11-24T15:19:47.586Z,33.08
2022-11-24T15:22:32.349Z,19.98
2022-11-24T15:24:53.128Z,16.27
2022-11-24T15:27:12.795Z,14.30
2022-11-24T15:29:32.600Z,13.55
2022-11-24T15:31:53.058Z,25.75
2022-11-24T15:34:14.014Z,12.20
2022-11-24T15:36:34.299Z,9.43
2022-11-24T15:38:54.032Z,5.65
2022-11-24T15:41:20.122Z,8.77
2022-11-24T15:43:40.826Z,10.48
2022-11-24T15:46:02.136Z,12.27
2022-11-24T15:48:22.063Z,18.23
2022-11-24T15:50:42.407Z,15.25
2022-11-24T15:53:03.390Z,22.30
2022-11-24T15:55:23.406Z,8.95
2022-11-24T15:57:43.402Z,9.02
2022-11-24T16:00:03.749Z,9.15
2022-11-24T16:02:23.784Z,5.93
2022-11-24T16:04:43.706Z,6.50
2022-11-24T16:07:05.585Z,13.27
2022-11-24T16:09:25.666Z,13.07
2022-11-24T16:11:45.612Z,21.83
2022-11-24T16:14:05.515Z,18.55
2022-11-24T16:16:25.815Z,29.85
2022-11-24T16:18:45.916Z,8.98
2022-11-24T16:21:07.647Z,5.70
2022-11-24T16:23:27.339Z,7.07
2022-11-24T16:25:47.105Z,7.80
2022-11-24T16:28:07.046Z,7.85
2022-11-24T16:30:26.913Z,6.50
2022-11-24T16:32:46.467Z,9.45
2022-11-24T16:35:06.461Z,7.88
2022-11-24T16:37:26.220Z,10.00
2022-11-24T16:39:49.992Z,10.95
2022-11-24T16:42:10.085Z,9.82
2022-11-24T16:44:29.892Z,7.65
2022-11-24T16:46:49.924Z,8.13
2022-11-24T16:49:09.516Z,7.32
2022-11-24T16:51:34.425Z,8.25
2022-11-24T16:53:59.754Z,9.57
2022-11-24T16:56:19.722Z,11.27
2022-11-24T16:58:40.737Z,15.45
2022-11-24T17:01:09.659Z,24.75
2022-11-24T17:03:36.368Z,18.55
2022-11-24T17:06:00.535Z,12.25
2022-11-24T17:08:20.572Z,30.20
2022-11-24T17:10:40.269Z,33.17
2022-11-24T17:13:00.047Z,35.13
2022-11-24T17:15:40.821Z,47.58
2022-11-24T17:18:23.583Z,33.97
2022-11-24T17:20:40.553Z,46.75
2022-11-24T17:23:00.625Z,29.73
2022-11-24T17:25:20.128Z,39.50
2022-11-24T17:27:39.554Z,29.08
2022-11-24T17:29:59.312Z,38.50
2022-11-24T17:32:19.571Z,39.20
2022-11-24T17:34:39.365Z,16.58
2022-11-24T17:36:58.867Z,14.85
2022-11-24T17:39:24.612Z,11.18
2022-11-24T17:41:44.661Z,11.30
2022-11-24T17:44:06.829Z,10.57
2022-11-24T17:46:28.505Z,13.55
2022-11-24T17:48:48.235Z,14.20
2022-11-24T17:51:14.754Z,13.05
2022-11-24T17:53:38.959Z,18.73
2022-11-24T17:56:00.238Z,14.32
2022-11-24T17:58:19.903Z,17.13
2022-11-24T18:00:39.499Z,14.25
2022-11-24T18:03:00.251Z,14.20
2022-11-24T18:05:20.585Z,13.80
2022-11-24T18:07:40.533Z,14.57
2022-11-24T18:10:00.581Z,15.95
2022-11-24T18:12:20.101Z,14.07
2022-11-24T18:14:39.786Z,12.15
2022-11-24T18:16:59.565Z,17.90
2022-11-24T18:19:19.849Z,19.40
2022-11-24T18:21:41.223Z,17.75
2022-11-24T18:24:01.161Z,22.63
2022-11-24T18:26:22.277Z,20.77
2022-11-24T18:28:45.348Z,20.08
2022-11-24T18:31:07.594Z,21.05
2022-11-24T18:33:27.466Z,31.48
2022-11-24T18:36:01.175Z,20.88
2022-11-24T18:38:21.038Z,20.15
2022-11-24T18:40:42.833Z,15.55
2022-11-24T18:43:02.541Z,20.58
2022-11-24T18:45:22.195Z,19.55
2022-11-24T18:47:42.684Z,17.10
2022-11-24T18:50:04.265Z,15.40
2022-11-24T18:52:23.789Z,17.48
2022-11-24T18:54:43.455Z,27.00
2022-11-24T18:57:03.644Z,24.83
2022-11-24T18:59:24.555Z,33.60
2022-11-24T19:01:45.580Z,33.88
2022-11-24T19:04:05.447Z,33.42
2022-11-24T19:06:34.733Z,38.40
2022-11-24T19:08:55.076Z,36.17
2022-11-24T19:11:19.135Z,36.50
2022-11-24T19:13:38.797Z,18.40
2022-11-24T19:15:59.678Z,12.40
2022-11-24T19:18:20.385Z,12.70
2022-11-24T19:20:40.150Z,13.23
2022-11-24T19:23:00.097Z,10.82
2022-11-24T19:25:19.916Z,13.13
2022-11-24T19:27:39.412Z,23.33
2022-11-24T19:30:00.036Z,19.85
2022-11-24T19:32:19.720Z,26.58
2022-11-24T19:34:39.711Z,44.33
2022-11-24T19:36:59.478Z,66.47
2022-11-24T19:39:19.264Z,57.90
2022-11-24T19:41:39.521Z,39.08
2022-11-24T19:43:59.607Z,60.22
2022-11-24T19:46:20.908Z,56.53
2022-11-24T19:48:42.729Z,31.60
2022-11-24T19:51:05.904Z,59.85
2022-11-24T19:53:25.786Z,55.47
2022-11-24T19:55:45.551Z,37.92
2022-11-24T19:58:05.090Z,34.17
2022-11-24T20:00:29.137Z,35.63
2022-11-24T20:02:51.396Z,41.53
2022-11-24T20:05:10.982Z,47.33
2022-11-24T20:16:38.927Z,82.28
2022-11-24T20:19:05.013Z,57.85
2022-11-24T20:21:33.037Z,41.33
2022-11-24T20:23:56.436Z,18.83
2022-11-24T20:26:19.062Z,17.63
2022-11-24T20:28:39.235Z,42.22
2022-11-24T20:31:08.182Z,21.83
2022-11-24T20:33:28.431Z,27.65
2022-11-24T20:35:48.230Z,29.27
2022-11-24T20:38:08.147Z,35.00
2022-11-24T20:40:28.137Z,38.63
2022-11-24T20:42:48.155Z,41.42
2022-11-24T20:45:07.948Z,64.18
2022-11-24T20:47:27.664Z,60.38
2022-11-24T20:49:48.484Z,59.35
2022-11-24T20:52:08.515Z,47.22
2022-11-24T20:54:28.170Z,56.40
2022-11-24T20:56:49.045Z,54.47
2022-11-24T20:59:16.506Z,40.30
2022-11-24T21:01:39.003Z,46.92
2022-11-24T21:04:00.013Z,33.92
2022-11-24T21:06:19.909Z,31.60
2022-11-24T21:08:41.961Z,24.27
2022-11-24T21:11:02.844Z,22.20
2022-11-24T21:13:22.633Z,22.40
2022-11-24T21:15:42.803Z,21.85
2022-11-24T21:18:02.810Z,17.65
2022-11-24T21:20:22.897Z,22.77
2022-11-24T21:22:42.505Z,27.38
2022-11-24T21:25:02.038Z,47.53
2022-11-24T21:27:21.557Z,28.10
2022-11-24T21:29:41.464Z,19.92
2022-11-24T21:32:01.207Z,18.48
2022-11-24T21:34:21.427Z,19.30
2022-11-24T21:36:44.120Z,15.10
2022-11-24T21:39:04.170Z,26.52
2022-11-24T21:41:26.892Z,12.57
2022-11-24T21:43:46.999Z,14.65
2022-11-24T21:46:09.877Z,24.58
2022-11-24T21:50:50.094Z,35.58
2022-11-24T21:53:09.881Z,43.72
2022-11-24T21:55:30.117Z,29.00
2022-11-24T21:57:49.777Z,43.92
2022-11-24T22:00:09.800Z,41.50
2022-11-24T22:02:29.631Z,38.03
2022-11-24T22:04:49.840Z,49.15
2022-11-24T22:07:09.516Z,38.75
2022-11-24T22:09:29.112Z,40.75
2022-11-24T22:11:48.952Z,36.05
2022-11-24T22:14:10.193Z,38.67
2022-11-24T22:16:30.036Z,70.45
2022-11-24T22:18:50.827Z,28.17
2022-11-24T22:21:19.955Z,26.25
2022-11-24T22:23:40.348Z,20.85
2022-11-24T22:26:03.366Z,19.38
2022-11-24T22:28:22.905Z,15.25
2022-11-24T22:30:42.510Z,14.05
2022-11-24T22:33:02.157Z,14.52
2022-11-24T22:35:22.044Z,13.45
2022-11-24T22:37:41.818Z,11.77
2022-11-24T22:40:01.615Z,11.80
2022-11-24T22:42:21.184Z,13.98
2022-11-24T22:44:40.880Z,19.40
2022-11-24T22:47:00.461Z,19.08
2022-11-24T22:49:20.212Z,20.67
2022-11-24T22:51:39.935Z,20.08
2022-11-24T22:54:01.790Z,20.25
2022-11-24T22:56:22.403Z,20.52
2022-11-24T22:58:42.608Z,39.80
2022-11-24T23:01:12.934Z,18.75
2022-11-24T23:03:34.297Z,16.42
2022-11-24T23:05:54.168Z,13.50
2022-11-24T23:08:13.678Z,17.30
2022-11-24T23:10:33.372Z,14.18
2022-11-24T23:12:53.987Z,16.45
2022-11-24T23:15:13.938Z,18.80
2022-11-24T23:17:33.501Z,22.80
2022-11-24T23:19:53.542Z,21.92
2022-11-24T23:22:13.565Z,25.98
2022-11-24T23:24:37.521Z,24.48
2022-11-24T23:26:57.638Z,24.25
2022-11-24T23:29:17.164Z,26.80
2022-11-24T23:31:39.124Z,22.13
2022-11-24T23:34:03.258Z,25.83
2022-11-24T23:36:23.157Z,19.20
2022-11-24T23:38:44.087Z,31.13
2022-11-24T23:41:06.676Z,26.90
2022-11-24T23:43:26.957Z,26.92
2022-11-24T23:45:46.604Z,26.77
2022-11-24T23:48:07.905Z,24.08
2022-11-24T23:50:28.339Z,30.48
2022-11-24T23:52:48.270Z,28.52
2022-11-24T23:55:08.158Z,27.02
2022-11-24T23:57:28.040Z,22.08
2022-11-24T23:59:47.819Z,22.42
